createdAt,value
2023-03-29T00:00:49.823Z,86.70
2023-03-29T00:03:17.111Z,86.82
2023-03-29T00:05:44.871Z,87.00
2023-03-29T00:08:14.592Z,86.75
2023-03-29T00:10:42.211Z,86.85
2023-03-29T00:13:08.933Z,86.86
2023-03-29T00:15:35.621Z,87.09
2023-03-29T00:18:02.170Z,86.74
2023-03-29T00:20:28.971Z,86.68
2023-03-29T00:22:55.739Z,87.17
2023-03-29T00:25:22.414Z,86.82
2023-03-29T00:27:49.234Z,87.01
2023-03-29T00:30:16.006Z,87.26
2023-03-29T00:32:42.827Z,87.24
2023-03-29T00:35:10.928Z,86.89
2023-03-29T00:37:38.022Z,87.15
2023-03-29T00:40:10.699Z,87.17
2023-03-29T00:42:38.136Z,86.89
2023-03-29T00:45:18.885Z,86.91
2023-03-29T00:47:48.883Z,87.36
2023-03-29T00:50:36.514Z,87.16
2023-03-29T00:53:17.535Z,87.53
2023-03-29T00:55:48.721Z,87.54
2023-03-29T00:58:21.232Z,87.23
2023-03-29T01:00:57.959Z,87.00
2023-03-29T01:03:28.741Z,87.32
2023-03-29T01:06:01.723Z,87.48
2023-03-29T01:08:54.543Z,87.46
2023-03-29T01:11:26.613Z,86.87
2023-03-29T01:13:52.953Z,86.99
2023-03-29T01:16:22.021Z,86.98
2023-03-29T01:18:48.610Z,86.76
2023-03-29T01:21:23.657Z,86.86
2023-03-29T01:23:51.087Z,86.40
2023-03-29T01:26:41.560Z,86.48
2023-03-29T01:29:15.446Z,85.72
2023-03-29T01:32:08.908Z,85.58
2023-03-29T01:34:43.569Z,85.60
2023-03-29T01:37:26.519Z,85.44
2023-03-29T01:39:53.316Z,84.83
2023-03-29T01:42:37.545Z,84.66
2023-03-29T01:45:09.909Z,84.41
2023-03-29T01:47:59.557Z,84.39
2023-03-29T01:50:47.377Z,84.93
2023-03-29T01:53:18.143Z,84.48
2023-03-29T01:55:53.295Z,84.54
2023-03-29T01:58:23.378Z,84.27
2023-03-29T02:00:53.925Z,84.17
2023-03-29T02:03:23.974Z,84.26
2023-03-29T02:05:52.366Z,83.75
2023-03-29T02:08:21.346Z,84.20
2023-03-29T02:10:48.242Z,84.21
2023-03-29T02:13:14.653Z,84.51
2023-03-29T02:15:41.121Z,84.83
2023-03-29T02:18:07.936Z,85.09
2023-03-29T02:20:39.165Z,84.96
2023-03-29T02:23:18.680Z,85.11
2023-03-29T02:25:46.531Z,85.56
2023-03-29T02:28:13.415Z,85.33
2023-03-29T02:30:56.459Z,85.29
2023-03-29T02:33:32.877Z,85.48
2023-03-29T02:36:04.653Z,86.03
2023-03-29T02:38:31.962Z,85.55
2023-03-29T02:40:59.745Z,85.70
2023-03-29T02:43:28.807Z,85.99
2023-03-29T02:45:56.338Z,86.49
2023-03-29T02:48:27.021Z,85.91
2023-03-29T02:50:58.059Z,86.02
2023-03-29T02:53:30.541Z,85.99
2023-03-29T02:55:57.815Z,86.56
2023-03-29T02:58:26.698Z,86.39
2023-03-29T03:00:53.749Z,86.81
2023-03-29T03:03:20.769Z,87.01
2023-03-29T03:05:47.747Z,87.15
2023-03-29T03:08:14.490Z,87.24
2023-03-29T03:10:41.573Z,87.05
2023-03-29T03:13:08.081Z,86.92
2023-03-29T03:15:35.890Z,87.03
2023-03-29T03:18:03.899Z,87.19
2023-03-29T03:20:31.197Z,87.10
2023-03-29T03:22:58.554Z,87.36
2023-03-29T03:25:25.055Z,87.55
2023-03-29T03:27:51.926Z,87.41
2023-03-29T03:30:18.942Z,88.00
2023-03-29T03:32:45.448Z,87.75
2023-03-29T03:35:12.427Z,88.09
2023-03-29T03:37:39.238Z,88.15
2023-03-29T03:40:08.316Z,88.28
2023-03-29T03:42:34.888Z,88.08
2023-03-29T03:45:01.859Z,88.07
2023-03-29T03:47:28.343Z,88.19
2023-03-29T03:49:54.953Z,88.40
2023-03-29T03:52:21.377Z,88.43
2023-03-29T03:54:50.099Z,88.43
2023-03-29T03:57:16.595Z,88.49
2023-03-29T03:59:43.073Z,88.97
2023-03-29T04:02:10.353Z,88.67
2023-03-29T04:04:37.223Z,88.52
2023-03-29T04:07:03.767Z,88.59
2023-03-29T04:09:31.460Z,88.92
2023-03-29T04:11:59.201Z,88.88
2023-03-29T04:14:26.475Z,88.87
2023-03-29T04:16:54.201Z,88.76
2023-03-29T04:19:21.249Z,89.02
2023-03-29T04:21:49.472Z,88.75
2023-03-29T04:24:17.212Z,88.94
2023-03-29T04:26:44.026Z,88.75
2023-03-29T04:29:10.976Z,88.75
2023-03-29T04:31:37.697Z,88.85
2023-03-29T04:34:04.486Z,88.84
2023-03-29T04:36:31.163Z,88.42
2023-03-29T04:38:58.607Z,88.89
2023-03-29T04:41:25.022Z,88.64
2023-03-29T04:43:52.164Z,88.81
2023-03-29T04:46:18.710Z,88.33
2023-03-29T04:48:45.230Z,88.96
2023-03-29T04:51:11.691Z,88.66
2023-03-29T04:53:38.213Z,88.90
2023-03-29T04:56:05.014Z,88.53
2023-03-29T04:58:32.553Z,88.86
2023-03-29T05:00:59.669Z,88.69
2023-03-29T05:03:27.057Z,88.64
2023-03-29T05:05:53.720Z,88.45
2023-03-29T05:08:20.619Z,88.35
2023-03-29T05:10:47.619Z,89.11
2023-03-29T05:13:16.774Z,88.99
2023-03-29T05:15:43.302Z,88.86
2023-03-29T05:18:10.622Z,88.71
2023-03-29T05:20:37.934Z,88.78
2023-03-29T05:23:04.358Z,88.71
2023-03-29T05:25:30.807Z,88.86
2023-03-29T05:27:58.768Z,88.75
2023-03-29T05:30:25.268Z,88.95
2023-03-29T05:32:52.819Z,88.47
2023-03-29T05:35:19.334Z,88.35
2023-03-29T05:37:47.324Z,88.60
2023-03-29T05:40:13.831Z,88.40
2023-03-29T05:42:40.293Z,88.66
2023-03-29T05:45:07.499Z,88.56
2023-03-29T05:47:33.987Z,88.57
2023-03-29T05:50:00.523Z,88.67
2023-03-29T05:52:27.409Z,88.39
2023-03-29T05:54:53.842Z,88.56
2023-03-29T05:57:20.372Z,88.60
2023-03-29T05:59:46.955Z,89.07
2023-03-29T06:02:16.001Z,88.31
2023-03-29T06:04:42.648Z,88.44
2023-03-29T06:07:10.383Z,87.95
2023-03-29T06:09:36.836Z,88.35
2023-03-29T06:12:03.975Z,88.44
2023-03-29T06:14:30.873Z,88.40
2023-03-29T06:16:57.273Z,88.17
2023-03-29T06:19:24.479Z,88.34
2023-03-29T06:21:53.165Z,88.20
2023-03-29T06:24:20.647Z,87.97
2023-03-29T06:26:47.564Z,88.17
2023-03-29T06:29:13.989Z,87.58
2023-03-29T06:31:40.889Z,87.67
2023-03-29T06:34:07.624Z,87.76
2023-03-29T06:36:34.977Z,87.32
2023-03-29T06:39:01.425Z,87.54
2023-03-29T06:41:27.904Z,87.60
2023-03-29T06:43:55.085Z,88.03
2023-03-29T06:46:21.594Z,87.97
2023-03-29T06:48:48.375Z,87.54
2023-03-29T06:51:14.861Z,87.57
2023-03-29T06:53:41.437Z,87.48
2023-03-29T06:56:09.786Z,87.81
2023-03-29T06:58:36.928Z,87.82
2023-03-29T07:01:04.200Z,88.43
2023-03-29T07:03:31.528Z,88.31
2023-03-29T07:06:04.221Z,88.52
2023-03-29T07:08:35.240Z,89.02
2023-03-29T07:11:03.265Z,89.53
2023-03-29T07:13:30.589Z,89.69
2023-03-29T07:15:57.537Z,90.08
2023-03-29T07:18:24.041Z,89.89
2023-03-29T07:20:52.067Z,89.40
2023-03-29T07:23:18.642Z,89.88
2023-03-29T07:25:45.233Z,89.45
2023-03-29T07:28:11.713Z,89.31
2023-03-29T07:30:38.617Z,89.03
2023-03-29T07:33:05.162Z,88.76
2023-03-29T07:35:32.857Z,89.31
2023-03-29T07:37:59.489Z,88.95
2023-03-29T07:40:26.274Z,88.77
2023-03-29T07:42:55.228Z,88.37
2023-03-29T07:45:26.543Z,88.13
2023-03-29T07:47:58.731Z,88.17
2023-03-29T07:50:32.399Z,87.93
2023-03-29T07:53:00.848Z,88.05
2023-03-29T07:55:27.459Z,87.81
2023-03-29T07:57:53.874Z,87.45
2023-03-29T08:00:21.045Z,87.47
2023-03-29T08:02:49.836Z,86.88
2023-03-29T08:05:26.137Z,86.35
2023-03-29T08:08:00.960Z,86.80
2023-03-29T08:10:27.860Z,86.21
2023-03-29T08:12:54.358Z,86.52
2023-03-29T08:15:20.924Z,86.46
2023-03-29T08:17:47.397Z,86.31
2023-03-29T08:20:16.207Z,86.15
2023-03-29T08:22:42.729Z,86.38
2023-03-29T08:25:09.956Z,85.85
2023-03-29T08:27:37.723Z,85.78
2023-03-29T08:30:09.452Z,85.75
2023-03-29T08:32:37.425Z,86.06
2023-03-29T08:35:06.739Z,85.67
2023-03-29T08:37:33.289Z,86.39
2023-03-29T08:40:00.952Z,85.75
2023-03-29T08:42:49.292Z,86.37
2023-03-29T08:45:38.864Z,85.40
2023-03-29T08:48:23.862Z,86.06
2023-03-29T08:50:53.954Z,85.37
2023-03-29T08:53:35.573Z,86.29
2023-03-29T08:56:08.722Z,85.89
2023-03-29T08:58:38.224Z,86.03
2023-03-29T09:01:09.386Z,85.97
2023-03-29T09:03:45.205Z,86.25
2023-03-29T09:06:13.555Z,86.01
2023-03-29T09:08:47.497Z,86.19
2023-03-29T09:11:35.108Z,86.56
2023-03-29T09:14:26.357Z,85.82
2023-03-29T09:17:12.043Z,85.81
2023-03-29T09:20:13.255Z,86.27
2023-03-29T09:22:53.889Z,86.01
2023-03-29T09:25:52.559Z,86.02
2023-03-29T09:28:29.566Z,86.35
2023-03-29T09:31:19.556Z,86.07
2023-03-29T09:34:00.390Z,85.50
2023-03-29T09:36:52.463Z,85.77
2023-03-29T09:39:21.258Z,85.36
2023-03-29T09:41:54.526Z,85.29
2023-03-29T09:44:31.223Z,84.98
2023-03-29T09:47:23.053Z,85.17
2023-03-29T09:49:52.358Z,84.67
2023-03-29T09:52:20.877Z,84.55
2023-03-29T09:54:47.386Z,84.77
2023-03-29T09:57:16.578Z,85.49
2023-03-29T09:59:45.620Z,84.43
2023-03-29T10:02:13.761Z,84.47
2023-03-29T10:04:42.517Z,84.27
2023-03-29T10:07:20.684Z,84.10
2023-03-29T10:09:56.318Z,84.42
2023-03-29T10:12:23.101Z,84.44
2023-03-29T10:14:53.623Z,84.55
2023-03-29T10:17:26.746Z,84.49
2023-03-29T10:19:58.282Z,83.70
2023-03-29T10:22:27.813Z,84.00
2023-03-29T10:24:57.144Z,83.33
2023-03-29T10:27:28.964Z,83.29
2023-03-29T10:29:58.591Z,83.10
2023-03-29T10:32:28.293Z,82.83
2023-03-29T10:34:55.408Z,82.99
2023-03-29T10:37:23.424Z,83.19
2023-03-29T10:39:50.581Z,82.96
2023-03-29T10:42:19.607Z,82.79
2023-03-29T10:44:58.160Z,83.16
2023-03-29T10:47:25.534Z,83.38
2023-03-29T10:49:58.887Z,84.02
2023-03-29T10:52:26.052Z,84.09
2023-03-29T10:54:56.366Z,84.25
2023-03-29T10:57:30.961Z,83.71
2023-03-29T11:00:09.636Z,84.15
2023-03-29T11:02:57.074Z,84.83
2023-03-29T11:05:39.377Z,85.16
2023-03-29T11:08:34.660Z,85.12
2023-03-29T11:11:07.464Z,85.16
2023-03-29T11:13:41.056Z,85.77
2023-03-29T11:16:22.112Z,85.45
2023-03-29T11:19:02.565Z,86.51
2023-03-29T11:21:54.062Z,86.91
2023-03-29T11:24:44.132Z,87.76
2023-03-29T11:27:37.029Z,88.22
2023-03-29T11:30:29.057Z,87.19
2023-03-29T11:33:19.513Z,87.83
2023-03-29T11:36:15.607Z,87.72
2023-03-29T11:39:09.520Z,87.76
2023-03-29T11:41:41.276Z,87.79
2023-03-29T11:44:24.334Z,87.66
2023-03-29T11:47:12.335Z,86.79
2023-03-29T11:49:45.567Z,87.01
2023-03-29T11:52:12.025Z,86.03
2023-03-29T11:54:45.754Z,85.41
2023-03-29T11:57:25.158Z,84.30
2023-03-29T11:59:59.049Z,84.07
2023-03-29T12:02:34.527Z,84.69
2023-03-29T12:05:11.996Z,84.31
2023-03-29T12:07:49.528Z,84.10
2023-03-29T12:10:27.303Z,84.32
2023-03-29T12:13:09.393Z,84.53
2023-03-29T12:15:43.283Z,84.27
2023-03-29T12:18:25.125Z,84.07
2023-03-29T12:20:57.624Z,84.58
2023-03-29T12:23:24.301Z,84.58
2023-03-29T12:26:02.253Z,84.87
2023-03-29T12:28:59.174Z,84.99
2023-03-29T12:31:32.619Z,85.18
2023-03-29T12:34:12.581Z,85.64
2023-03-29T12:37:00.685Z,85.92
2023-03-29T12:39:30.006Z,85.98
2023-03-29T12:42:17.093Z,86.54
2023-03-29T12:44:48.787Z,86.74
2023-03-29T12:47:24.590Z,86.81
2023-03-29T12:49:59.434Z,87.32
2023-03-29T12:52:31.546Z,87.70
2023-03-29T12:55:01.313Z,88.04
2023-03-29T12:57:58.117Z,88.15
2023-03-29T13:00:34.074Z,88.22
2023-03-29T13:03:22.584Z,87.93
2023-03-29T13:06:03.681Z,88.00
2023-03-29T13:08:37.131Z,87.97
2023-03-29T13:11:05.315Z,87.55
2023-03-29T13:13:37.477Z,87.42
2023-03-29T13:16:19.160Z,87.50
2023-03-29T13:18:54.752Z,87.45
2023-03-29T13:21:34.305Z,87.41
2023-03-29T13:24:18.910Z,87.48
2023-03-29T13:26:49.784Z,86.64
2023-03-29T13:29:48.062Z,86.52
2023-03-29T13:32:51.495Z,86.39
2023-03-29T13:35:43.278Z,86.14
2023-03-29T13:38:22.591Z,85.41
2023-03-29T13:41:01.481Z,85.60
2023-03-29T13:43:49.797Z,85.61
2023-03-29T13:46:24.237Z,86.17
2023-03-29T13:49:03.876Z,85.70
2023-03-29T13:51:39.114Z,85.44
2023-03-29T13:54:24.109Z,84.85
2023-03-29T13:56:55.091Z,85.04
2023-03-29T13:59:40.144Z,85.06
2023-03-29T14:02:07.456Z,83.74
2023-03-29T14:04:41.950Z,83.90
2023-03-29T14:07:10.683Z,83.29
2023-03-29T14:09:43.804Z,83.80
2023-03-29T14:12:13.622Z,83.07
2023-03-29T14:14:57.834Z,83.25
2023-03-29T14:17:25.837Z,83.12
2023-03-29T14:19:56.530Z,83.27
2023-03-29T14:22:23.093Z,83.10
2023-03-29T14:24:54.791Z,83.34
2023-03-29T14:27:22.157Z,82.88
2023-03-29T14:29:51.189Z,83.14
2023-03-29T14:32:27.066Z,82.51
2023-03-29T14:34:53.500Z,83.05
2023-03-29T14:37:26.640Z,83.25
2023-03-29T14:39:53.811Z,83.15
2023-03-29T14:42:26.618Z,82.75
2023-03-29T14:45:01.722Z,82.34
2023-03-29T14:47:30.898Z,81.71
2023-03-29T14:50:00.886Z,81.90
2023-03-29T14:52:31.924Z,81.38
2023-03-29T14:55:00.441Z,81.01
2023-03-29T14:57:32.673Z,80.86
2023-03-29T15:00:01.799Z,80.57
2023-03-29T15:02:31.096Z,80.42
2023-03-29T15:05:03.599Z,80.80
2023-03-29T15:07:32.374Z,80.45
2023-03-29T15:10:00.820Z,79.93
2023-03-29T15:12:31.827Z,80.04
2023-03-29T15:14:59.807Z,80.10
2023-03-29T15:17:51.197Z,79.40
2023-03-29T15:20:29.850Z,79.65
2023-03-29T15:23:02.469Z,79.73
2023-03-29T15:25:52.955Z,79.68
2023-03-29T15:28:31.069Z,79.15
2023-03-29T15:31:11.643Z,79.73
2023-03-29T15:33:40.584Z,79.43
2023-03-29T15:36:10.011Z,79.17
2023-03-29T15:38:43.963Z,78.77
2023-03-29T15:41:15.519Z,79.28
2023-03-29T15:43:43.754Z,78.58
2023-03-29T15:46:13.961Z,78.36
2023-03-29T15:48:40.802Z,78.69
2023-03-29T15:51:07.539Z,78.80
2023-03-29T15:53:35.115Z,78.07
2023-03-29T15:56:05.429Z,77.71
2023-03-29T15:58:33.581Z,78.30
2023-03-29T16:01:33.889Z,78.12
2023-03-29T16:04:04.366Z,77.68
2023-03-29T16:06:32.155Z,78.24
2023-03-29T16:08:58.729Z,78.62
2023-03-29T16:11:26.415Z,78.33
2023-03-29T16:13:52.845Z,78.53
2023-03-29T16:16:19.468Z,78.63
2023-03-29T16:18:45.960Z,78.66
2023-03-29T16:21:15.833Z,78.67
2023-03-29T16:23:42.889Z,78.49
2023-03-29T16:26:12.430Z,79.01
2023-03-29T16:28:39.229Z,79.02
2023-03-29T16:31:06.168Z,79.24
2023-03-29T16:33:32.910Z,79.39
2023-03-29T16:35:59.335Z,79.46
2023-03-29T16:38:25.918Z,79.57
2023-03-29T16:40:53.706Z,79.66
2023-03-29T16:43:20.114Z,79.70
2023-03-29T16:45:46.735Z,79.92
2023-03-29T16:48:17.154Z,80.29
2023-03-29T16:50:50.064Z,80.84
2023-03-29T16:53:18.485Z,80.60
2023-03-29T16:55:48.258Z,80.88
2023-03-29T16:58:15.426Z,81.11
2023-03-29T17:00:43.065Z,81.16
2023-03-29T17:03:11.008Z,81.22
2023-03-29T17:05:41.458Z,81.70
2023-03-29T17:08:10.053Z,81.82
2023-03-29T17:10:36.942Z,81.90
2023-03-29T17:13:06.395Z,82.40
2023-03-29T17:15:32.977Z,82.38
2023-03-29T17:17:59.438Z,82.37
2023-03-29T17:20:25.937Z,82.66
2023-03-29T17:22:55.289Z,82.35
2023-03-29T17:25:26.521Z,82.63
2023-03-29T17:27:54.117Z,83.29
2023-03-29T17:30:20.699Z,83.20
2023-03-29T17:32:47.265Z,83.07
2023-03-29T17:35:14.519Z,83.79
2023-03-29T17:37:43.460Z,83.62
2023-03-29T17:40:12.428Z,83.59
2023-03-29T17:42:39.384Z,84.10
2023-03-29T17:45:06.992Z,84.13
2023-03-29T17:47:33.567Z,84.00
2023-03-29T17:50:01.264Z,84.38
2023-03-29T17:52:27.682Z,84.64
2023-03-29T17:54:54.089Z,84.63
2023-03-29T17:57:20.643Z,84.65
2023-03-29T17:59:47.181Z,84.95
2023-03-29T18:02:19.168Z,84.96
2023-03-29T18:04:46.132Z,84.97
2023-03-29T18:07:12.790Z,84.80
2023-03-29T18:09:39.385Z,84.97
2023-03-29T18:12:10.507Z,85.55
2023-03-29T18:14:37.330Z,85.69
2023-03-29T18:17:04.059Z,85.72
2023-03-29T18:19:30.834Z,85.44
2023-03-29T18:21:57.490Z,85.98
2023-03-29T18:24:24.023Z,86.66
2023-03-29T18:26:50.814Z,85.92
2023-03-29T18:29:17.442Z,86.16
2023-03-29T18:31:45.831Z,86.08
2023-03-29T18:34:12.613Z,86.55
2023-03-29T18:36:39.100Z,86.60
2023-03-29T18:39:05.823Z,86.68
2023-03-29T18:41:33.954Z,86.94
2023-03-29T18:44:00.814Z,86.79
2023-03-29T18:46:31.819Z,86.83
2023-03-29T18:48:59.654Z,87.28
2023-03-29T18:51:28.209Z,87.24
2023-03-29T18:53:56.091Z,87.49
2023-03-29T18:56:23.127Z,87.64
2023-03-29T18:58:49.713Z,87.57
2023-03-29T19:01:16.369Z,87.64
2023-03-29T19:03:42.983Z,87.82
2023-03-29T19:06:09.561Z,87.67
2023-03-29T19:08:38.731Z,87.84
2023-03-29T19:11:07.754Z,87.71
2023-03-29T19:13:34.790Z,88.10
2023-03-29T19:16:01.748Z,88.30
2023-03-29T19:18:28.498Z,88.35
2023-03-29T19:20:55.385Z,88.61
2023-03-29T19:23:25.082Z,88.48
2023-03-29T19:25:58.712Z,89.12
2023-03-29T19:28:25.977Z,89.11
2023-03-29T19:30:57.464Z,89.22
2023-03-29T19:33:24.081Z,89.69
2023-03-29T19:35:51.809Z,89.69
2023-03-29T19:38:19.347Z,90.20
2023-03-29T19:40:47.063Z,89.89
2023-03-29T19:43:17.247Z,90.48
2023-03-29T19:45:45.043Z,90.47
2023-03-29T19:48:21.130Z,90.67
2023-03-29T19:50:48.541Z,90.91
2023-03-29T19:53:15.037Z,91.34
2023-03-29T19:55:43.858Z,91.87
2023-03-29T19:58:10.415Z,92.03
2023-03-29T20:00:38.729Z,91.98
2023-03-29T20:03:09.205Z,92.61
2023-03-29T20:05:38.169Z,92.59
2023-03-29T20:08:06.323Z,92.78
2023-03-29T20:10:33.841Z,93.17
2023-03-29T20:13:00.508Z,93.31
2023-03-29T20:15:27.183Z,93.25
2023-03-29T20:17:56.936Z,93.64
2023-03-29T20:20:28.274Z,93.84
2023-03-29T20:22:58.313Z,94.26
2023-03-29T20:25:25.852Z,94.22
2023-03-29T20:27:52.998Z,94.35
2023-03-29T20:30:20.170Z,94.70
2023-03-29T20:32:46.734Z,95.07
2023-03-29T20:35:13.213Z,95.12
2023-03-29T20:37:39.668Z,95.43
2023-03-29T20:40:08.184Z,95.36
2023-03-29T20:42:36.605Z,95.31
2023-03-29T20:45:03.366Z,95.66
2023-03-29T20:47:29.844Z,95.64
2023-03-29T20:49:56.779Z,95.71
2023-03-29T20:52:24.541Z,96.42
2023-03-29T20:54:51.190Z,96.60
2023-03-29T20:57:20.706Z,96.51
2023-03-29T20:59:51.545Z,96.29
2023-03-29T21:02:21.349Z,96.55
2023-03-29T21:04:52.334Z,96.77
2023-03-29T21:07:22.012Z,96.84
2023-03-29T21:09:49.908Z,96.87
2023-03-29T21:12:16.782Z,96.61
2023-03-29T21:14:43.614Z,96.49
2023-03-29T21:17:10.324Z,96.96
2023-03-29T21:19:38.172Z,96.76
2023-03-29T21:22:05.345Z,97.05
2023-03-29T21:24:33.065Z,96.99
2023-03-29T21:27:00.545Z,96.94
2023-03-29T21:29:29.318Z,97.07
2023-03-29T21:31:55.988Z,96.81
2023-03-29T21:34:22.890Z,97.09
2023-03-29T21:36:49.721Z,96.94
2023-03-29T21:39:16.232Z,97.03
2023-03-29T21:41:45.309Z,97.02
2023-03-29T21:44:12.758Z,96.94
2023-03-29T21:46:39.172Z,97.11
2023-03-29T21:49:05.710Z,97.05
2023-03-29T21:51:32.655Z,96.81
2023-03-29T21:53:59.127Z,97.16
2023-03-29T21:56:26.308Z,97.09
2023-03-29T21:58:52.819Z,96.85
2023-03-29T22:01:19.373Z,97.03
2023-03-29T22:03:46.364Z,96.67
2023-03-29T22:06:14.409Z,96.86
2023-03-29T22:08:41.181Z,96.75
2023-03-29T22:11:11.036Z,96.94
2023-03-29T22:13:37.859Z,96.70
2023-03-29T22:16:05.561Z,97.01
2023-03-29T22:18:43.034Z,96.68
2023-03-29T22:21:10.918Z,96.41
2023-03-29T22:23:37.338Z,96.54
2023-03-29T22:26:08.384Z,96.20
2023-03-29T22:28:36.700Z,96.45
2023-03-29T22:31:05.643Z,95.94
2023-03-29T22:33:36.555Z,96.12
2023-03-29T22:36:14.620Z,96.14
2023-03-29T22:38:41.336Z,96.01
2023-03-29T22:41:08.313Z,95.80
2023-03-29T22:43:36.562Z,95.74
2023-03-29T22:46:08.329Z,95.54
2023-03-29T22:48:35.705Z,95.29
2023-03-29T22:51:02.437Z,95.22
2023-03-29T22:53:29.370Z,95.03
2023-03-29T22:55:55.945Z,94.82
2023-03-29T22:58:22.600Z,94.50
2023-03-29T23:00:50.037Z,94.13
2023-03-29T23:03:16.763Z,93.93
2023-03-29T23:05:52.684Z,93.59
2023-03-29T23:08:19.981Z,93.35
2023-03-29T23:10:47.015Z,93.22
2023-03-29T23:13:19.936Z,93.05
2023-03-29T23:15:48.673Z,92.69
2023-03-29T23:18:18.141Z,92.56
2023-03-29T23:20:47.086Z,92.22
2023-03-29T23:23:14.350Z,91.95
2023-03-29T23:25:42.245Z,91.71
2023-03-29T23:28:09.024Z,91.52
2023-03-29T23:30:38.543Z,91.60
2023-03-29T23:33:08.391Z,91.32
2023-03-29T23:35:34.891Z,91.14
2023-03-29T23:38:01.318Z,90.60
2023-03-29T23:40:27.936Z,90.42
2023-03-29T23:42:59.464Z,90.24
2023-03-29T23:45:28.063Z,89.87
2023-03-29T23:47:56.020Z,89.86
2023-03-29T23:50:22.973Z,89.68
2023-03-29T23:52:51.522Z,89.35
2023-03-29T23:55:18.535Z,89.00
2023-03-29T23:57:45.020Z,88.55
